Terminal Aerodrome Forecast
Issued by NWS

Home | Current Version | Previous Version | Graphics & Text | Print | Product List | Glossary On
Versions: 1 2 3 4 5 6 7 8 9 10 11 12
036
FTUS45 KGGW 220520
TAFSDY
TAF
KSDY 220520Z 2206/2306 16005KT P6SM BKN150
     FM221500 25011KT P6SM BKN060 WS020/28050KT
     FM221800 29018KT P6SM FEW130
     FM222200 31010KT P6SM FEW050
     FM230300 VRB03KT P6SM SCT016=

USA.gov is the U.S. government's official web portal to all federal, state and local government web resources and services.